Airfield :







YOU CAN JOIN US ON...

 
LOGIN :

Register | Disclaimer

   EN    FR    IT 

 









Legend :    VFR   Marginal VFR   IFR   Intensive IFR   Very Intensive IFR
Visi :
Ceiling :
>= 8 km
>= 3000ft
5 to 8 km
1000 to 3000 ft
1500m to 5 km
500 to 1000 ft
800 to 1500m
200 to 500 ft
< 800m
< 200 ft
Symbols :   Thunderstorms  Fog  Heavy snow  Heavy precipitations  Wind > 20 kt






- Airport Elevation : 234 ft
- IATA code : PBG


KPBG - Plattsburgh International

CURRENT METAR :
  • 021553Z AUTO 33008KT 10SM FEW060 26/11 A2985 RMK AO2 SLP108 T02610106

EXPIRED METARs :
  • 021453Z AUTO 27008KT 10SM CLR 26/12 A2984 RMK AO2 SLP105 T02560117 51010
  • 020253Z AUTO 00000KT 10SM CLR 21/19 A2978 RMK AO2 SLP083 T02060189 56006
  • 021353Z AUTO 26007G19KT 10SM CLR 24/14 A2984 RMK AO2 SLP104 T02440139

TAF KPBG
Valid from the 02 at 12:00 until the 03 at 12:00 UTC


021128Z 0212/0312 VRB04KT P6SM BKN120
FM021400 30008KT P6SM FEW120
FM021700 19009KT P6SM SKC
FM022000 22008KT P6SM FEW250
FM022300 24005KT P6SM FEW100
FM030400 00000KT P6SM FEW200
KZBW FIR / North America



MET'MAP, your aeronautical weather chart ! - Copyright ORBIFLY December 2007 - Disclaimer

ORBIFLY MET'MAP TEAM :

Programming & Development : Alexandra Zaïnal
Original concept : Baudouin d'Aumeries
Technical & hardware support : Manuel Goepfert
Assistance : Marc-Olivier Méhu




SOURCES & CREDITS :

   NOAA